Puerto la Cruz, Venezuela
Current Conditions -  °F | °C
As of 7:00 PM on Tuesday 27 Jan 2015 (Local Time) from SVBC Reporting Station
Few Clouds Few Clouds  
Wind Chill: 86°   Ceiling: Unl
Heat Index: 90°   Visibility: 6mi
Dew Point: 70°   Wind: 12mph
Humidity: 58%   Direction: 30°NNE
Pressure: 29.83"   Gusts: NA
Location:  10.17°N, 64.68°W
Report Text: SVBC 272300Z 03010KT 99999 FEW010 30/21 Q1010
Loading
Personal Weather Stations






























Interactive Weather Map New forecast layout! Learn more

10-Day Weather Forecast

Advertisements
Track Severe Weather on mobile